sensor_id;sensor_type;location;lat;lon;timestamp;P1;durP1;ratioP1;P2;durP2;ratioP2
15474;SDS011;7839;50.462;9.678;2023-07-20T00:02:22;2.03;;;1.25;;
15474;SDS011;7839;50.462;9.678;2023-07-20T00:09:03;1.02;;;0.95;;
15474;SDS011;7839;50.462;9.678;2023-07-20T00:15:43;1.30;;;1.30;;
15474;SDS011;7839;50.462;9.678;2023-07-20T00:22:23;1.30;;;1.20;;
15474;SDS011;7839;50.462;9.678;2023-07-20T00:29:03;1.23;;;1.17;;
15474;SDS011;7839;50.462;9.678;2023-07-20T00:35:44;1.05;;;1.05;;
15474;SDS011;7839;50.462;9.678;2023-07-20T00:42:24;1.08;;;1.08;;
15474;SDS011;7839;50.462;9.678;2023-07-20T00:49:04;1.02;;;0.95;;
15474;SDS011;7839;50.462;9.678;2023-07-20T00:55:46;1.05;;;1.05;;
15474;SDS011;7839;50.462;9.678;2023-07-20T01:02:26;1.30;;;1.08;;
15474;SDS011;7839;50.462;9.678;2023-07-20T01:15:50;0.90;;;0.90;;
15474;SDS011;7839;50.462;9.678;2023-07-20T01:29:14;1.00;;;1.00;;
15474;SDS011;7839;50.462;9.678;2023-07-20T01:35:58;1.17;;;1.08;;
15474;SDS011;7839;50.462;9.678;2023-07-20T01:42:42;0.90;;;0.90;;
15474;SDS011;7839;50.462;9.678;2023-07-20T01:49:24;0.90;;;0.90;;
15474;SDS011;7839;50.462;9.678;2023-07-20T01:56:04;0.90;;;0.90;;
15474;SDS011;7839;50.462;9.678;2023-07-20T02:02:44;1.05;;;1.02;;
15474;SDS011;7839;50.462;9.678;2023-07-20T02:09:24;1.10;;;1.00;;
15474;SDS011;7839;50.462;9.678;2023-07-20T02:16:05;0.98;;;0.98;;
15474;SDS011;7839;50.462;9.678;2023-07-20T02:22:45;1.17;;;1.08;;
15474;SDS011;7839;50.462;9.678;2023-07-20T02:29:25;1.08;;;1.08;;
15474;SDS011;7839;50.462;9.678;2023-07-20T02:36:05;1.33;;;1.15;;
15474;SDS011;7839;50.462;9.678;2023-07-20T02:42:45;1.10;;;1.10;;
15474;SDS011;7839;50.462;9.678;2023-07-20T02:49:26;0.93;;;0.93;;
15474;SDS011;7839;50.462;9.678;2023-07-20T02:56:06;1.10;;;1.10;;
15474;SDS011;7839;50.462;9.678;2023-07-20T03:02:47;1.00;;;1.00;;
15474;SDS011;7839;50.462;9.678;2023-07-20T03:09:27;1.30;;;1.20;;
15474;SDS011;7839;50.462;9.678;2023-07-20T03:16:08;0.70;;;0.70;;
15474;SDS011;7839;50.462;9.678;2023-07-20T03:22:52;1.35;;;1.25;;
15474;SDS011;7839;50.462;9.678;2023-07-20T03:29:32;1.20;;;1.20;;
15474;SDS011;7839;50.462;9.678;2023-07-20T03:36:13;1.20;;;1.10;;
15474;SDS011;7839;50.462;9.678;2023-07-20T03:42:53;1.10;;;1.10;;
15474;SDS011;7839;50.462;9.678;2023-07-20T03:49:33;1.13;;;1.10;;
15474;SDS011;7839;50.462;9.678;2023-07-20T03:56:14;3.33;;;1.00;;
15474;SDS011;7839;50.462;9.678;2023-07-20T04:02:54;1.48;;;1.38;;
15474;SDS011;7839;50.462;9.678;2023-07-20T04:09:34;1.38;;;1.27;;
15474;SDS011;7839;50.462;9.678;2023-07-20T04:16:14;1.20;;;1.15;;
15474;SDS011;7839;50.462;9.678;2023-07-20T04:22:54;1.25;;;1.15;;
15474;SDS011;7839;50.462;9.678;2023-07-20T04:29:35;1.27;;;1.23;;
15474;SDS011;7839;50.462;9.678;2023-07-20T04:36:15;1.50;;;1.10;;
15474;SDS011;7839;50.462;9.678;2023-07-20T04:42:59;1.00;;;1.00;;
15474;SDS011;7839;50.462;9.678;2023-07-20T04:49:39;1.40;;;1.30;;
15474;SDS011;7839;50.462;9.678;2023-07-20T04:56:19;1.40;;;1.30;;
15474;SDS011;7839;50.462;9.678;2023-07-20T05:03:00;1.15;;;1.05;;
15474;SDS011;7839;50.462;9.678;2023-07-20T05:09:40;1.30;;;1.20;;
15474;SDS011;7839;50.462;9.678;2023-07-20T05:16:20;1.38;;;1.27;;
15474;SDS011;7839;50.462;9.678;2023-07-20T05:23:01;1.30;;;1.30;;
15474;SDS011;7839;50.462;9.678;2023-07-20T05:29:44;1.17;;;1.08;;
15474;SDS011;7839;50.462;9.678;2023-07-20T05:36:25;1.50;;;1.15;;
15474;SDS011;7839;50.462;9.678;2023-07-20T05:43:05;0.95;;;0.95;;
15474;SDS011;7839;50.462;9.678;2023-07-20T05:49:45;1.40;;;1.30;;
15474;SDS011;7839;50.462;9.678;2023-07-20T05:56:25;1.52;;;1.42;;
15474;SDS011;7839;50.462;9.678;2023-07-20T06:03:06;1.30;;;1.17;;
15474;SDS011;7839;50.462;9.678;2023-07-20T06:09:46;1.95;;;1.48;;
15474;SDS011;7839;50.462;9.678;2023-07-20T06:16:26;1.40;;;1.30;;
15474;SDS011;7839;50.462;9.678;2023-07-20T06:23:06;1.45;;;1.35;;
15474;SDS011;7839;50.462;9.678;2023-07-20T06:29:46;1.70;;;1.60;;
15474;SDS011;7839;50.462;9.678;2023-07-20T06:36:26;2.00;;;1.40;;
15474;SDS011;7839;50.462;9.678;2023-07-20T06:43:07;1.48;;;1.30;;
15474;SDS011;7839;50.462;9.678;2023-07-20T06:49:47;1.67;;;1.33;;
15474;SDS011;7839;50.462;9.678;2023-07-20T06:56:27;1.70;;;1.60;;
15474;SDS011;7839;50.462;9.678;2023-07-20T07:03:07;1.20;;;1.20;;
15474;SDS011;7839;50.462;9.678;2023-07-20T07:09:47;2.47;;;2.20;;
15474;SDS011;7839;50.462;9.678;2023-07-20T07:16:29;1.60;;;1.50;;
15474;SDS011;7839;50.462;9.678;2023-07-20T07:23:09;6.22;;;2.90;;
15474;SDS011;7839;50.462;9.678;2023-07-20T07:29:49;1.37;;;1.13;;
15474;SDS011;7839;50.462;9.678;2023-07-20T07:36:30;2.13;;;1.80;;
15474;SDS011;7839;50.462;9.678;2023-07-20T07:43:10;1.55;;;1.45;;
15474;SDS011;7839;50.462;9.678;2023-07-20T07:49:51;3.33;;;2.33;;
15474;SDS011;7839;50.462;9.678;2023-07-20T07:56:32;2.05;;;1.85;;
15474;SDS011;7839;50.462;9.678;2023-07-20T08:03:12;2.03;;;1.73;;
15474;SDS011;7839;50.462;9.678;2023-07-20T08:09:53;1.58;;;1.42;;
15474;SDS011;7839;50.462;9.678;2023-07-20T08:16:33;4.82;;;3.78;;
15474;SDS011;7839;50.462;9.678;2023-07-20T08:23:13;2.83;;;2.00;;
15474;SDS011;7839;50.462;9.678;2023-07-20T08:29:53;2.00;;;1.90;;
15474;SDS011;7839;50.462;9.678;2023-07-20T08:36:33;2.20;;;2.10;;
15474;SDS011;7839;50.462;9.678;2023-07-20T08:43:14;2.63;;;2.43;;
15474;SDS011;7839;50.462;9.678;2023-07-20T08:49:57;2.00;;;1.90;;
15474;SDS011;7839;50.462;9.678;2023-07-20T08:56:38;2.80;;;2.22;;
15474;SDS011;7839;50.462;9.678;2023-07-20T09:03:20;2.05;;;1.95;;
15474;SDS011;7839;50.462;9.678;2023-07-20T09:10:01;3.13;;;2.20;;
15474;SDS011;7839;50.462;9.678;2023-07-20T09:16:55;2.88;;;2.17;;
15474;SDS011;7839;50.462;9.678;2023-07-20T09:23:36;2.55;;;2.30;;
15474;SDS011;7839;50.462;9.678;2023-07-20T09:30:17;2.10;;;2.00;;
15474;SDS011;7839;50.462;9.678;2023-07-20T09:36:58;2.75;;;2.10;;
15474;SDS011;7839;50.462;9.678;2023-07-20T09:43:38;2.05;;;1.95;;
15474;SDS011;7839;50.462;9.678;2023-07-20T09:50:19;1.73;;;1.63;;
15474;SDS011;7839;50.462;9.678;2023-07-20T09:57:01;1.85;;;1.75;;
15474;SDS011;7839;50.462;9.678;2023-07-20T10:03:42;2.65;;;1.77;;
15474;SDS011;7839;50.462;9.678;2023-07-20T10:10:24;2.60;;;1.98;;
15474;SDS011;7839;50.462;9.678;2023-07-20T10:17:05;5.18;;;1.88;;
15474;SDS011;7839;50.462;9.678;2023-07-20T10:23:45;2.90;;;2.60;;
15474;SDS011;7839;50.462;9.678;2023-07-20T10:30:26;2.40;;;2.20;;
15474;SDS011;7839;50.462;9.678;2023-07-20T10:37:06;2.03;;;1.80;;
15474;SDS011;7839;50.462;9.678;2023-07-20T10:43:47;4.27;;;2.07;;
15474;SDS011;7839;50.462;9.678;2023-07-20T10:50:29;4.10;;;2.10;;
15474;SDS011;7839;50.462;9.678;2023-07-20T10:57:28;2.00;;;1.80;;
15474;SDS011;7839;50.462;9.678;2023-07-20T11:04:08;1.87;;;1.77;;
15474;SDS011;7839;50.462;9.678;2023-07-20T11:10:48;1.83;;;1.73;;
15474;SDS011;7839;50.462;9.678;2023-07-20T11:17:48;2.00;;;1.90;;
15474;SDS011;7839;50.462;9.678;2023-07-20T11:24:29;1.77;;;1.67;;
15474;SDS011;7839;50.462;9.678;2023-07-20T11:31:10;1.65;;;1.55;;
15474;SDS011;7839;50.462;9.678;2023-07-20T11:37:54;1.90;;;1.80;;
15474;SDS011;7839;50.462;9.678;2023-07-20T11:44:34;1.98;;;1.88;;
15474;SDS011;7839;50.462;9.678;2023-07-20T11:51:15;2.10;;;1.70;;
15474;SDS011;7839;50.462;9.678;2023-07-20T11:58:03;2.00;;;1.70;;
15474;SDS011;7839;50.462;9.678;2023-07-20T12:04:43;1.90;;;1.80;;
15474;SDS011;7839;50.462;9.678;2023-07-20T12:18:12;3.10;;;2.40;;
15474;SDS011;7839;50.462;9.678;2023-07-20T12:24:53;3.20;;;2.53;;
15474;SDS011;7839;50.462;9.678;2023-07-20T12:31:36;2.90;;;2.70;;
15474;SDS011;7839;50.462;9.678;2023-07-20T12:38:16;3.10;;;2.87;;
15474;SDS011;7839;50.462;9.678;2023-07-20T12:44:56;3.83;;;2.97;;
15474;SDS011;7839;50.462;9.678;2023-07-20T12:51:37;4.00;;;2.70;;
15474;SDS011;7839;50.462;9.678;2023-07-20T12:58:17;4.13;;;2.70;;
15474;SDS011;7839;50.462;9.678;2023-07-20T13:04:58;4.13;;;3.23;;
15474;SDS011;7839;50.462;9.678;2023-07-20T13:11:38;5.20;;;3.53;;
15474;SDS011;7839;50.462;9.678;2023-07-20T13:18:18;3.07;;;2.77;;
15474;SDS011;7839;50.462;9.678;2023-07-20T13:24:58;4.93;;;2.77;;
15474;SDS011;7839;50.462;9.678;2023-07-20T13:31:39;2.73;;;2.43;;
15474;SDS011;7839;50.462;9.678;2023-07-20T13:38:19;4.37;;;2.50;;
15474;SDS011;7839;50.462;9.678;2023-07-20T13:44:59;4.83;;;2.47;;
15474;SDS011;7839;50.462;9.678;2023-07-20T13:51:41;2.40;;;1.93;;
15474;SDS011;7839;50.462;9.678;2023-07-20T13:58:21;2.30;;;2.10;;
15474;SDS011;7839;50.462;9.678;2023-07-20T14:05:01;2.07;;;1.97;;
15474;SDS011;7839;50.462;9.678;2023-07-20T14:11:42;5.33;;;1.90;;
15474;SDS011;7839;50.462;9.678;2023-07-20T14:18:22;2.53;;;2.10;;
15474;SDS011;7839;50.462;9.678;2023-07-20T14:25:02;4.10;;;2.10;;
15474;SDS011;7839;50.462;9.678;2023-07-20T14:31:43;4.03;;;2.40;;
15474;SDS011;7839;50.462;9.678;2023-07-20T14:38:23;2.43;;;1.77;;
15474;SDS011;7839;50.462;9.678;2023-07-20T14:45:04;2.37;;;2.17;;
15474;SDS011;7839;50.462;9.678;2023-07-20T14:51:45;3.27;;;1.90;;
15474;SDS011;7839;50.462;9.678;2023-07-20T14:58:27;2.10;;;2.00;;
15474;SDS011;7839;50.462;9.678;2023-07-20T15:05:07;2.30;;;1.87;;
15474;SDS011;7839;50.462;9.678;2023-07-20T15:11:47;2.50;;;2.20;;
15474;SDS011;7839;50.462;9.678;2023-07-20T15:18:28;4.38;;;2.10;;
15474;SDS011;7839;50.462;9.678;2023-07-20T15:25:08;2.70;;;2.08;;
15474;SDS011;7839;50.462;9.678;2023-07-20T15:31:48;2.60;;;2.40;;
15474;SDS011;7839;50.462;9.678;2023-07-20T15:38:29;3.67;;;2.20;;
15474;SDS011;7839;50.462;9.678;2023-07-20T15:45:10;3.07;;;2.10;;
15474;SDS011;7839;50.462;9.678;2023-07-20T15:51:50;2.97;;;2.20;;
15474;SDS011;7839;50.462;9.678;2023-07-20T15:58:30;2.10;;;1.87;;
15474;SDS011;7839;50.462;9.678;2023-07-20T16:05:11;2.10;;;1.90;;
15474;SDS011;7839;50.462;9.678;2023-07-20T16:11:51;4.20;;;2.50;;
15474;SDS011;7839;50.462;9.678;2023-07-20T16:18:31;2.50;;;2.03;;
15474;SDS011;7839;50.462;9.678;2023-07-20T16:25:12;2.30;;;2.10;;
15474;SDS011;7839;50.462;9.678;2023-07-20T16:31:52;2.13;;;2.00;;
15474;SDS011;7839;50.462;9.678;2023-07-20T16:38:32;2.60;;;2.10;;
15474;SDS011;7839;50.462;9.678;2023-07-20T16:45:12;2.67;;;2.47;;
15474;SDS011;7839;50.462;9.678;2023-07-20T16:51:53;2.30;;;2.20;;
15474;SDS011;7839;50.462;9.678;2023-07-20T16:58:35;2.37;;;2.00;;
15474;SDS011;7839;50.462;9.678;2023-07-20T17:05:15;3.53;;;2.00;;
15474;SDS011;7839;50.462;9.678;2023-07-20T17:11:56;2.80;;;2.00;;
15474;SDS011;7839;50.462;9.678;2023-07-20T17:18:36;1.77;;;1.67;;
15474;SDS011;7839;50.462;9.678;2023-07-20T17:25:16;3.40;;;2.00;;
15474;SDS011;7839;50.462;9.678;2023-07-20T17:31:56;2.13;;;2.00;;
15474;SDS011;7839;50.462;9.678;2023-07-20T17:38:37;1.80;;;1.70;;
15474;SDS011;7839;50.462;9.678;2023-07-20T17:45:17;1.90;;;1.70;;
15474;SDS011;7839;50.462;9.678;2023-07-20T17:51:57;2.93;;;1.63;;
15474;SDS011;7839;50.462;9.678;2023-07-20T17:58:38;1.80;;;1.70;;
15474;SDS011;7839;50.462;9.678;2023-07-20T18:05:18;1.33;;;1.33;;
15474;SDS011;7839;50.462;9.678;2023-07-20T18:11:59;2.57;;;1.70;;
15474;SDS011;7839;50.462;9.678;2023-07-20T18:18:39;2.47;;;1.30;;
15474;SDS011;7839;50.462;9.678;2023-07-20T18:25:20;1.97;;;1.40;;
15474;SDS011;7839;50.462;9.678;2023-07-20T18:32:01;1.90;;;1.37;;
15474;SDS011;7839;50.462;9.678;2023-07-20T18:38:43;1.57;;;1.50;;
15474;SDS011;7839;50.462;9.678;2023-07-20T18:45:23;2.00;;;1.90;;
15474;SDS011;7839;50.462;9.678;2023-07-20T18:52:06;1.80;;;1.70;;
15474;SDS011;7839;50.462;9.678;2023-07-20T18:58:46;1.73;;;1.63;;
15474;SDS011;7839;50.462;9.678;2023-07-20T19:05:27;1.67;;;1.58;;
15474;SDS011;7839;50.462;9.678;2023-07-20T19:12:07;1.70;;;1.60;;
15474;SDS011;7839;50.462;9.678;2023-07-20T19:18:48;1.58;;;1.48;;
15474;SDS011;7839;50.462;9.678;2023-07-20T19:25:29;1.70;;;1.60;;
15474;SDS011;7839;50.462;9.678;2023-07-20T19:32:09;1.45;;;1.35;;
15474;SDS011;7839;50.462;9.678;2023-07-20T19:38:50;1.27;;;1.23;;
15474;SDS011;7839;50.462;9.678;2023-07-20T19:45:30;1.30;;;1.30;;
15474;SDS011;7839;50.462;9.678;2023-07-20T19:52:11;1.10;;;1.10;;
15474;SDS011;7839;50.462;9.678;2023-07-20T19:58:51;1.50;;;1.40;;
15474;SDS011;7839;50.462;9.678;2023-07-20T20:05:31;1.17;;;1.10;;
15474;SDS011;7839;50.462;9.678;2023-07-20T20:12:15;1.15;;;1.05;;
15474;SDS011;7839;50.462;9.678;2023-07-20T20:18:55;1.10;;;1.02;;
15474;SDS011;7839;50.462;9.678;2023-07-20T20:25:35;1.05;;;1.05;;
15474;SDS011;7839;50.462;9.678;2023-07-20T20:32:15;1.77;;;1.20;;
15474;SDS011;7839;50.462;9.678;2023-07-20T20:38:55;1.30;;;1.08;;
15474;SDS011;7839;50.462;9.678;2023-07-20T20:45:36;0.93;;;0.93;;
15474;SDS011;7839;50.462;9.678;2023-07-20T20:52:16;2.25;;;1.00;;
15474;SDS011;7839;50.462;9.678;2023-07-20T20:58:57;0.90;;;0.90;;
15474;SDS011;7839;50.462;9.678;2023-07-20T21:05:37;0.68;;;0.68;;
15474;SDS011;7839;50.462;9.678;2023-07-20T21:12:17;1.08;;;1.05;;
15474;SDS011;7839;50.462;9.678;2023-07-20T21:18:57;1.02;;;1.00;;
15474;SDS011;7839;50.462;9.678;2023-07-20T21:25:38;1.85;;;0.80;;
15474;SDS011;7839;50.462;9.678;2023-07-20T21:32:18;0.77;;;0.77;;
15474;SDS011;7839;50.462;9.678;2023-07-20T21:38:58;1.00;;;1.00;;
15474;SDS011;7839;50.462;9.678;2023-07-20T21:45:38;0.65;;;0.65;;
15474;SDS011;7839;50.462;9.678;2023-07-20T21:52:21;0.80;;;0.80;;
15474;SDS011;7839;50.462;9.678;2023-07-20T21:59:01;0.50;;;0.50;;
15474;SDS011;7839;50.462;9.678;2023-07-20T22:05:41;0.80;;;0.80;;
15474;SDS011;7839;50.462;9.678;2023-07-20T22:12:24;0.70;;;0.70;;
15474;SDS011;7839;50.462;9.678;2023-07-20T22:19:05;0.65;;;0.60;;
15474;SDS011;7839;50.462;9.678;2023-07-20T22:25:45;0.80;;;0.80;;
15474;SDS011;7839;50.462;9.678;2023-07-20T22:32:26;0.40;;;0.40;;
15474;SDS011;7839;50.462;9.678;2023-07-20T22:39:06;0.50;;;0.50;;
15474;SDS011;7839;50.462;9.678;2023-07-20T22:45:46;0.57;;;0.57;;
15474;SDS011;7839;50.462;9.678;2023-07-20T22:52:27;0.77;;;0.70;;
15474;SDS011;7839;50.462;9.678;2023-07-20T22:59:08;0.57;;;0.57;;
15474;SDS011;7839;50.462;9.678;2023-07-20T23:05:49;0.52;;;0.52;;
15474;SDS011;7839;50.462;9.678;2023-07-20T23:12:30;0.60;;;0.60;;
15474;SDS011;7839;50.462;9.678;2023-07-20T23:19:10;0.30;;;0.30;;
15474;SDS011;7839;50.462;9.678;2023-07-20T23:25:54;0.50;;;0.50;;
15474;SDS011;7839;50.462;9.678;2023-07-20T23:32:35;0.45;;;0.45;;
15474;SDS011;7839;50.462;9.678;2023-07-20T23:39:16;0.50;;;0.50;;
15474;SDS011;7839;50.462;9.678;2023-07-20T23:45:57;0.60;;;0.60;;
15474;SDS011;7839;50.462;9.678;2023-07-20T23:52:39;0.47;;;0.47;;
15474;SDS011;7839;50.462;9.678;2023-07-20T23:59:20;0.40;;;0.40;;
